sensor_id;sensor_type;location;lat;lon;timestamp;P1;P2;P0
49343;PMS5003;35210;41.606;-87.602;2023-07-24T00:00:40;18.00;16.00;10.50
49343;PMS5003;35210;41.606;-87.602;2023-07-24T00:03:09;20.50;20.50;15.00
49343;PMS5003;35210;41.606;-87.602;2023-07-24T00:05:37;23.80;21.40;13.80
49343;PMS5003;35210;41.606;-87.602;2023-07-24T00:08:05;18.25;17.75;11.50
49343;PMS5003;35210;41.606;-87.602;2023-07-24T00:10:35;24.25;22.75;12.75
49343;PMS5003;35210;41.606;-87.602;2023-07-24T00:13:04;24.60;20.80;13.20
49343;PMS5003;35210;41.606;-87.602;2023-07-24T00:15:32;24.75;21.25;13.25
49343;PMS5003;35210;41.606;-87.602;2023-07-24T00:18:00;19.80;19.60;12.00
49343;PMS5003;35210;41.606;-87.602;2023-07-24T00:20:28;18.80;17.60;12.60
49343;PMS5003;35210;41.606;-87.602;2023-07-24T00:22:56;21.40;21.40;14.40
49343;PMS5003;35210;41.606;-87.602;2023-07-24T00:25:24;18.80;18.80;12.20
49343;PMS5003;35210;41.606;-87.602;2023-07-24T00:27:54;19.40;17.80;12.00
49343;PMS5003;35210;41.606;-87.602;2023-07-24T00:30:22;24.80;21.80;13.80
49343;PMS5003;35210;41.606;-87.602;2023-07-24T00:32:50;22.00;19.75;12.00
49343;PMS5003;35210;41.606;-87.602;2023-07-24T00:35:18;18.40;17.80;11.20
49343;PMS5003;35210;41.606;-87.602;2023-07-24T00:37:46;20.20;19.80;13.00
49343;PMS5003;35210;41.606;-87.602;2023-07-24T00:40:14;24.20;20.20;13.20
49343;PMS5003;35210;41.606;-87.602;2023-07-24T00:42:46;25.40;21.20;15.20
49343;PMS5003;35210;41.606;-87.602;2023-07-24T00:45:16;26.25;25.00;15.25
49343;PMS5003;35210;41.606;-87.602;2023-07-24T00:47:44;27.40;20.80;13.20
49343;PMS5003;35210;41.606;-87.602;2023-07-24T00:50:12;25.20;22.00;15.80
49343;PMS5003;35210;41.606;-87.602;2023-07-24T00:52:42;25.75;22.75;14.50
49343;PMS5003;35210;41.606;-87.602;2023-07-24T00:55:10;19.40;16.00;12.00
49343;PMS5003;35210;41.606;-87.602;2023-07-24T00:57:42;20.00;20.00;13.80
49343;PMS5003;35210;41.606;-87.602;2023-07-24T01:00:12;23.40;23.20;15.00
49343;PMS5003;35210;41.606;-87.602;2023-07-24T01:02:42;21.40;20.60;13.00
49343;PMS5003;35210;41.606;-87.602;2023-07-24T01:05:11;24.00;21.50;13.50
49343;PMS5003;35210;41.606;-87.602;2023-07-24T01:07:42;26.20;24.60;14.80
49343;PMS5003;35210;41.606;-87.602;2023-07-24T01:10:15;24.00;20.60;13.00
49343;PMS5003;35210;41.606;-87.602;2023-07-24T01:12:45;25.40;23.20;15.60
49343;PMS5003;35210;41.606;-87.602;2023-07-24T01:15:19;23.00;22.50;14.25
49343;PMS5003;35210;41.606;-87.602;2023-07-24T01:17:55;20.60;18.00;10.20
49343;PMS5003;35210;41.606;-87.602;2023-07-24T01:20:26;22.80;19.60;12.60
49343;PMS5003;35210;41.606;-87.602;2023-07-24T01:23:01;28.00;21.60;13.20
49343;PMS5003;35210;41.606;-87.602;2023-07-24T01:25:48;24.00;23.60;13.40
49343;PMS5003;35210;41.606;-87.602;2023-07-24T01:28:21;23.00;20.80;13.60
49343;PMS5003;35210;41.606;-87.602;2023-07-24T01:30:50;24.00;21.00;12.60
49343;PMS5003;35210;41.606;-87.602;2023-07-24T01:33:22;20.00;20.00;13.00
49343;PMS5003;35210;41.606;-87.602;2023-07-24T01:35:52;20.20;19.00;12.80
49343;PMS5003;35210;41.606;-87.602;2023-07-24T01:38:22;21.80;20.60;13.60
49343;PMS5003;35210;41.606;-87.602;2023-07-24T01:40:54;21.20;20.20;13.40
49343;PMS5003;35210;41.606;-87.602;2023-07-24T01:43:24;16.20;15.20;11.60
49343;PMS5003;35210;41.606;-87.602;2023-07-24T01:45:53;19.60;18.00;11.60
49343;PMS5003;35210;41.606;-87.602;2023-07-24T01:48:22;20.00;18.20;13.00
49343;PMS5003;35210;41.606;-87.602;2023-07-24T01:50:51;18.00;18.00;10.60
49343;PMS5003;35210;41.606;-87.602;2023-07-24T01:53:21;18.60;17.60;12.80
49343;PMS5003;35210;41.606;-87.602;2023-07-24T01:55:50;23.00;19.80;13.00
49343;PMS5003;35210;41.606;-87.602;2023-07-24T01:58:20;21.80;20.60;12.80
49343;PMS5003;35210;41.606;-87.602;2023-07-24T02:00:48;18.40;17.60;12.20
49343;PMS5003;35210;41.606;-87.602;2023-07-24T02:03:17;14.00;12.40;7.00
49343;PMS5003;35210;41.606;-87.602;2023-07-24T02:05:49;21.40;18.40;10.40
49343;PMS5003;35210;41.606;-87.602;2023-07-24T02:08:17;18.00;17.00;10.20
49343;PMS5003;35210;41.606;-87.602;2023-07-24T02:10:48;22.00;18.60;12.20
49343;PMS5003;35210;41.606;-87.602;2023-07-24T02:13:17;19.00;19.00;12.40
49343;PMS5003;35210;41.606;-87.602;2023-07-24T02:15:47;23.20;20.00;12.40
49343;PMS5003;35210;41.606;-87.602;2023-07-24T02:18:15;22.80;20.80;13.60
49343;PMS5003;35210;41.606;-87.602;2023-07-24T02:20:48;19.20;18.80;11.00
49343;PMS5003;35210;41.606;-87.602;2023-07-24T02:23:17;21.40;20.40;14.00
49343;PMS5003;35210;41.606;-87.602;2023-07-24T02:25:50;21.20;19.20;12.40
49343;PMS5003;35210;41.606;-87.602;2023-07-24T02:28:19;19.40;18.00;13.60
49343;PMS5003;35210;41.606;-87.602;2023-07-24T02:30:49;22.60;17.80;12.40
49343;PMS5003;35210;41.606;-87.602;2023-07-24T02:33:22;18.60;17.60;11.40
49343;PMS5003;35210;41.606;-87.602;2023-07-24T02:35:51;17.80;16.00;9.80
49343;PMS5003;35210;41.606;-87.602;2023-07-24T02:38:20;19.40;19.20;13.40
49343;PMS5003;35210;41.606;-87.602;2023-07-24T02:40:51;19.60;18.00;11.80
49343;PMS5003;35210;41.606;-87.602;2023-07-24T02:43:19;19.00;15.20;10.80
49343;PMS5003;35210;41.606;-87.602;2023-07-24T02:45:49;21.40;19.60;12.80
49343;PMS5003;35210;41.606;-87.602;2023-07-24T02:48:17;19.80;19.00;12.20
49343;PMS5003;35210;41.606;-87.602;2023-07-24T02:50:47;21.00;17.00;12.00
49343;PMS5003;35210;41.606;-87.602;2023-07-24T02:53:15;19.60;18.60;12.60
49343;PMS5003;35210;41.606;-87.602;2023-07-24T02:55:43;20.40;19.00;13.40
49343;PMS5003;35210;41.606;-87.602;2023-07-24T02:58:12;21.20;20.00;11.40
49343;PMS5003;35210;41.606;-87.602;2023-07-24T03:00:40;19.40;17.40;12.00
49343;PMS5003;35210;41.606;-87.602;2023-07-24T03:03:10;25.20;20.40;15.00
49343;PMS5003;35210;41.606;-87.602;2023-07-24T03:05:38;24.00;19.60;12.00
49343;PMS5003;35210;41.606;-87.602;2023-07-24T03:08:06;20.80;15.20;10.40
49343;PMS5003;35210;41.606;-87.602;2023-07-24T03:10:34;23.20;19.80;12.40
49343;PMS5003;35210;41.606;-87.602;2023-07-24T03:13:06;25.60;22.00;14.60
49343;PMS5003;35210;41.606;-87.602;2023-07-24T03:15:34;21.20;17.80;12.40
49343;PMS5003;35210;41.606;-87.602;2023-07-24T03:18:03;17.80;14.80;9.00
49343;PMS5003;35210;41.606;-87.602;2023-07-24T03:20:35;23.40;22.80;13.40
49343;PMS5003;35210;41.606;-87.602;2023-07-24T03:23:03;25.60;21.20;14.00
49343;PMS5003;35210;41.606;-87.602;2023-07-24T03:25:31;22.40;19.80;11.60
49343;PMS5003;35210;41.606;-87.602;2023-07-24T03:28:02;21.40;20.20;13.20
49343;PMS5003;35210;41.606;-87.602;2023-07-24T03:30:30;19.80;18.20;13.00
49343;PMS5003;35210;41.606;-87.602;2023-07-24T03:32:58;22.60;19.80;12.80
49343;PMS5003;35210;41.606;-87.602;2023-07-24T03:35:27;18.40;16.40;13.80
49343;PMS5003;35210;41.606;-87.602;2023-07-24T03:37:56;25.80;25.00;14.60
49343;PMS5003;35210;41.606;-87.602;2023-07-24T03:40:24;29.40;24.20;15.60
49343;PMS5003;35210;41.606;-87.602;2023-07-24T03:42:52;8.60;4.60;2.00
49343;PMS5003;35210;41.606;-87.602;2023-07-24T03:45:21;22.20;21.40;16.00
49343;PMS5003;35210;41.606;-87.602;2023-07-24T03:47:49;29.00;26.00;15.60
49343;PMS5003;35210;41.606;-87.602;2023-07-24T03:50:17;24.40;23.00;13.40
49343;PMS5003;35210;41.606;-87.602;2023-07-24T03:52:45;23.60;22.20;14.40
49343;PMS5003;35210;41.606;-87.602;2023-07-24T03:55:15;17.60;16.60;11.40
49343;PMS5003;35210;41.606;-87.602;2023-07-24T03:57:43;23.40;22.20;14.20
49343;PMS5003;35210;41.606;-87.602;2023-07-24T04:00:12;24.40;24.40;15.20
49343;PMS5003;35210;41.606;-87.602;2023-07-24T04:02:41;24.00;21.00;12.60
49343;PMS5003;35210;41.606;-87.602;2023-07-24T04:05:09;25.40;23.20;15.20
49343;PMS5003;35210;41.606;-87.602;2023-07-24T04:07:37;28.60;27.20;16.00
49343;PMS5003;35210;41.606;-87.602;2023-07-24T04:10:06;24.40;23.00;13.60
49343;PMS5003;35210;41.606;-87.602;2023-07-24T04:12:36;24.60;21.80;15.60
49343;PMS5003;35210;41.606;-87.602;2023-07-24T04:15:05;28.40;25.80;16.40
49343;PMS5003;35210;41.606;-87.602;2023-07-24T04:17:34;27.00;25.40;16.00
49343;PMS5003;35210;41.606;-87.602;2023-07-24T04:20:04;29.60;22.40;16.40
49343;PMS5003;35210;41.606;-87.602;2023-07-24T04:22:33;24.20;23.80;16.80
49343;PMS5003;35210;41.606;-87.602;2023-07-24T04:25:02;28.80;27.40;18.20
49343;PMS5003;35210;41.606;-87.602;2023-07-24T04:27:31;28.80;28.00;19.00
49343;PMS5003;35210;41.606;-87.602;2023-07-24T04:30:01;32.60;28.40;18.80
49343;PMS5003;35210;41.606;-87.602;2023-07-24T04:32:29;24.80;24.80;16.40
49343;PMS5003;35210;41.606;-87.602;2023-07-24T04:34:57;25.20;22.80;13.20
49343;PMS5003;35210;41.606;-87.602;2023-07-24T04:37:25;23.80;20.80;14.40
49343;PMS5003;35210;41.606;-87.602;2023-07-24T04:39:53;28.00;26.20;19.00
49343;PMS5003;35210;41.606;-87.602;2023-07-24T04:42:25;22.60;22.60;16.60
49343;PMS5003;35210;41.606;-87.602;2023-07-24T04:44:53;23.60;22.40;16.00
49343;PMS5003;35210;41.606;-87.602;2023-07-24T04:47:23;24.40;23.60;16.60
49343;PMS5003;35210;41.606;-87.602;2023-07-24T04:49:51;29.60;25.00;17.00
49343;PMS5003;35210;41.606;-87.602;2023-07-24T04:52:20;27.20;26.00;18.00
49343;PMS5003;35210;41.606;-87.602;2023-07-24T04:54:49;26.40;24.20;15.80
49343;PMS5003;35210;41.606;-87.602;2023-07-24T04:57:17;28.20;24.20;14.00
49343;PMS5003;35210;41.606;-87.602;2023-07-24T04:59:45;30.20;27.00;17.60
49343;PMS5003;35210;41.606;-87.602;2023-07-24T05:02:13;29.80;27.20;17.80
49343;PMS5003;35210;41.606;-87.602;2023-07-24T05:04:43;26.60;24.40;15.80
49343;PMS5003;35210;41.606;-87.602;2023-07-24T05:07:11;23.20;22.80;16.20
49343;PMS5003;35210;41.606;-87.602;2023-07-24T05:09:39;29.20;26.60;17.60
49343;PMS5003;35210;41.606;-87.602;2023-07-24T05:12:07;24.80;24.60;16.20
49343;PMS5003;35210;41.606;-87.602;2023-07-24T05:14:38;29.20;26.60;16.80
49343;PMS5003;35210;41.606;-87.602;2023-07-24T05:17:08;23.60;22.80;16.00
49343;PMS5003;35210;41.606;-87.602;2023-07-24T05:19:36;29.00;24.80;16.60
49343;PMS5003;35210;41.606;-87.602;2023-07-24T05:22:06;24.40;22.00;15.20
49343;PMS5003;35210;41.606;-87.602;2023-07-24T05:24:35;27.40;27.40;18.20
49343;PMS5003;35210;41.606;-87.602;2023-07-24T05:27:04;25.60;24.80;16.40
49343;PMS5003;35210;41.606;-87.602;2023-07-24T05:29:32;28.40;24.60;17.20
49343;PMS5003;35210;41.606;-87.602;2023-07-24T05:32:00;23.20;20.20;14.40
49343;PMS5003;35210;41.606;-87.602;2023-07-24T05:34:28;29.80;25.20;17.00
49343;PMS5003;35210;41.606;-87.602;2023-07-24T05:36:57;28.20;27.20;19.00
49343;PMS5003;35210;41.606;-87.602;2023-07-24T05:39:26;29.00;24.75;16.50
49343;PMS5003;35210;41.606;-87.602;2023-07-24T05:41:56;20.40;19.40;14.20
49343;PMS5003;35210;41.606;-87.602;2023-07-24T05:44:25;27.80;25.60;15.40
49343;PMS5003;35210;41.606;-87.602;2023-07-24T05:46:53;24.80;23.20;16.40
49343;PMS5003;35210;41.606;-87.602;2023-07-24T05:49:21;30.00;28.60;17.20
49343;PMS5003;35210;41.606;-87.602;2023-07-24T05:51:49;25.40;24.60;17.60
49343;PMS5003;35210;41.606;-87.602;2023-07-24T05:54:19;29.40;27.00;19.80
49343;PMS5003;35210;41.606;-87.602;2023-07-24T05:56:49;26.00;24.20;16.60
49343;PMS5003;35210;41.606;-87.602;2023-07-24T05:59:19;26.60;25.40;17.60
49343;PMS5003;35210;41.606;-87.602;2023-07-24T06:01:47;25.00;25.00;17.20
49343;PMS5003;35210;41.606;-87.602;2023-07-24T06:04:15;25.20;22.60;16.00
49343;PMS5003;35210;41.606;-87.602;2023-07-24T06:06:45;26.20;26.20;17.60
49343;PMS5003;35210;41.606;-87.602;2023-07-24T06:09:13;31.20;28.80;18.00
49343;PMS5003;35210;41.606;-87.602;2023-07-24T06:11:41;33.80;29.60;19.60
49343;PMS5003;35210;41.606;-87.602;2023-07-24T06:14:11;26.20;25.40;18.60
49343;PMS5003;35210;41.606;-87.602;2023-07-24T06:16:39;30.20;30.20;16.80
49343;PMS5003;35210;41.606;-87.602;2023-07-24T06:19:07;33.20;28.80;19.40
49343;PMS5003;35210;41.606;-87.602;2023-07-24T06:21:35;42.25;33.50;23.00
49343;PMS5003;35210;41.606;-87.602;2023-07-24T06:24:04;31.40;28.60;18.00
49343;PMS5003;35210;41.606;-87.602;2023-07-24T06:26:37;33.00;29.20;20.00
49343;PMS5003;35210;41.606;-87.602;2023-07-24T06:29:05;31.00;27.40;19.20
49343;PMS5003;35210;41.606;-87.602;2023-07-24T06:31:35;31.00;29.20;18.20
49343;PMS5003;35210;41.606;-87.602;2023-07-24T06:34:03;34.00;31.20;21.00
49343;PMS5003;35210;41.606;-87.602;2023-07-24T06:36:31;40.20;31.20;19.40
49343;PMS5003;35210;41.606;-87.602;2023-07-24T06:39:00;31.60;29.80;20.00
49343;PMS5003;35210;41.606;-87.602;2023-07-24T06:41:28;36.00;30.80;20.40
49343;PMS5003;35210;41.606;-87.602;2023-07-24T06:43:56;36.40;29.80;20.00
49343;PMS5003;35210;41.606;-87.602;2023-07-24T06:46:24;24.20;24.20;17.80
49343;PMS5003;35210;41.606;-87.602;2023-07-24T06:48:54;35.60;31.00;18.60
49343;PMS5003;35210;41.606;-87.602;2023-07-24T06:51:22;26.40;20.80;14.60
49343;PMS5003;35210;41.606;-87.602;2023-07-24T06:53:50;30.00;29.60;17.40
49343;PMS5003;35210;41.606;-87.602;2023-07-24T06:56:19;35.80;30.20;18.60
49343;PMS5003;35210;41.606;-87.602;2023-07-24T06:58:47;32.60;29.60;19.60
49343;PMS5003;35210;41.606;-87.602;2023-07-24T07:01:15;39.80;30.40;20.60
49343;PMS5003;35210;41.606;-87.602;2023-07-24T07:03:43;34.80;31.20;19.00
49343;PMS5003;35210;41.606;-87.602;2023-07-24T07:06:13;28.00;24.80;19.00
49343;PMS5003;35210;41.606;-87.602;2023-07-24T07:08:41;27.00;24.40;19.00
49343;PMS5003;35210;41.606;-87.602;2023-07-24T07:11:09;38.60;30.40;20.00
49343;PMS5003;35210;41.606;-87.602;2023-07-24T07:13:37;29.80;24.40;14.00
49343;PMS5003;35210;41.606;-87.602;2023-07-24T07:16:05;35.80;32.20;20.00
49343;PMS5003;35210;41.606;-87.602;2023-07-24T07:18:33;33.60;26.80;19.80
49343;PMS5003;35210;41.606;-87.602;2023-07-24T07:21:02;27.60;22.80;16.80
49343;PMS5003;35210;41.606;-87.602;2023-07-24T07:23:31;30.60;30.00;18.40
49343;PMS5003;35210;41.606;-87.602;2023-07-24T07:25:59;32.00;26.60;18.60
49343;PMS5003;35210;41.606;-87.602;2023-07-24T07:28:29;32.20;28.60;18.80
49343;PMS5003;35210;41.606;-87.602;2023-07-24T07:30:57;30.20;26.60;16.60
49343;PMS5003;35210;41.606;-87.602;2023-07-24T07:33:25;34.80;28.80;19.40
49343;PMS5003;35210;41.606;-87.602;2023-07-24T07:35:54;27.40;27.00;17.40
49343;PMS5003;35210;41.606;-87.602;2023-07-24T07:38:22;26.40;24.40;17.20
49343;PMS5003;35210;41.606;-87.602;2023-07-24T07:40:52;32.60;29.00;20.00
49343;PMS5003;35210;41.606;-87.602;2023-07-24T07:43:20;28.80;26.00;17.20
49343;PMS5003;35210;41.606;-87.602;2023-07-24T07:45:48;35.00;30.50;16.75
49343;PMS5003;35210;41.606;-87.602;2023-07-24T07:48:16;32.20;29.40;20.20
49343;PMS5003;35210;41.606;-87.602;2023-07-24T07:50:44;31.00;29.40;20.00
49343;PMS5003;35210;41.606;-87.602;2023-07-24T07:53:17;34.40;28.80;18.60
49343;PMS5003;35210;41.606;-87.602;2023-07-24T07:55:46;31.80;29.40;19.00
49343;PMS5003;35210;41.606;-87.602;2023-07-24T07:58:24;29.80;25.60;18.40
49343;PMS5003;35210;41.606;-87.602;2023-07-24T08:00:52;32.60;30.00;19.20
49343;PMS5003;35210;41.606;-87.602;2023-07-24T08:03:20;29.60;29.40;19.20
49343;PMS5003;35210;41.606;-87.602;2023-07-24T08:05:48;32.20;30.20;19.00
49343;PMS5003;35210;41.606;-87.602;2023-07-24T08:08:16;29.80;27.60;18.40
49343;PMS5003;35210;41.606;-87.602;2023-07-24T08:10:45;29.40;29.00;17.60
49343;PMS5003;35210;41.606;-87.602;2023-07-24T08:13:13;27.60;26.20;17.60
49343;PMS5003;35210;41.606;-87.602;2023-07-24T08:15:43;32.40;29.00;17.80
49343;PMS5003;35210;41.606;-87.602;2023-07-24T08:18:11;30.20;25.80;19.00
49343;PMS5003;35210;41.606;-87.602;2023-07-24T08:20:39;28.80;25.40;17.20
49343;PMS5003;35210;41.606;-87.602;2023-07-24T08:23:08;28.80;27.80;19.60
49343;PMS5003;35210;41.606;-87.602;2023-07-24T08:25:36;31.20;25.60;16.40
49343;PMS5003;35210;41.606;-87.602;2023-07-24T08:28:04;27.00;25.20;18.20
49343;PMS5003;35210;41.606;-87.602;2023-07-24T08:30:32;29.60;29.20;18.20
49343;PMS5003;35210;41.606;-87.602;2023-07-24T08:33:03;29.60;28.40;20.00
49343;PMS5003;35210;41.606;-87.602;2023-07-24T08:35:31;29.00;28.60;17.80
49343;PMS5003;35210;41.606;-87.602;2023-07-24T08:38:01;32.40;29.20;19.20
49343;PMS5003;35210;41.606;-87.602;2023-07-24T08:40:30;32.80;29.20;20.00
49343;PMS5003;35210;41.606;-87.602;2023-07-24T08:43:00;29.80;28.40;18.40
49343;PMS5003;35210;41.606;-87.602;2023-07-24T08:45:28;27.20;26.60;17.00
49343;PMS5003;35210;41.606;-87.602;2023-07-24T08:47:57;28.60;26.60;17.40
49343;PMS5003;35210;41.606;-87.602;2023-07-24T08:50:28;29.00;25.60;17.00
49343;PMS5003;35210;41.606;-87.602;2023-07-24T08:52:57;30.40;27.60;17.00
49343;PMS5003;35210;41.606;-87.602;2023-07-24T08:55:26;25.40;25.40;16.80
49343;PMS5003;35210;41.606;-87.602;2023-07-24T08:57:55;33.00;29.40;17.40
49343;PMS5003;35210;41.606;-87.602;2023-07-24T09:00:23;31.20;30.00;19.20
49343;PMS5003;35210;41.606;-87.602;2023-07-24T09:02:51;22.20;22.20;16.60
49343;PMS5003;35210;41.606;-87.602;2023-07-24T09:05:19;32.40;29.80;19.40
49343;PMS5003;35210;41.606;-87.602;2023-07-24T09:07:49;26.00;24.60;18.00
49343;PMS5003;35210;41.606;-87.602;2023-07-24T09:10:19;31.20;27.60;18.80
49343;PMS5003;35210;41.606;-87.602;2023-07-24T09:12:52;29.60;28.60;17.60
49343;PMS5003;35210;41.606;-87.602;2023-07-24T09:15:20;28.20;27.40;19.00
49343;PMS5003;35210;41.606;-87.602;2023-07-24T09:17:49;34.60;30.00;18.40
49343;PMS5003;35210;41.606;-87.602;2023-07-24T09:20:17;28.40;26.60;15.20
49343;PMS5003;35210;41.606;-87.602;2023-07-24T09:22:50;31.60;31.00;19.00
49343;PMS5003;35210;41.606;-87.602;2023-07-24T09:25:29;22.00;19.00;13.40
49343;PMS5003;35210;41.606;-87.602;2023-07-24T09:27:58;32.00;30.25;19.00
49343;PMS5003;35210;41.606;-87.602;2023-07-24T09:30:26;21.80;20.40;19.00
49343;PMS5003;35210;41.606;-87.602;2023-07-24T09:32:54;31.20;29.60;18.20
49343;PMS5003;35210;41.606;-87.602;2023-07-24T09:35:22;35.20;31.60;19.60
49343;PMS5003;35210;41.606;-87.602;2023-07-24T09:38:02;32.80;29.60;19.60
49343;PMS5003;35210;41.606;-87.602;2023-07-24T09:40:38;30.80;28.00;18.60
49343;PMS5003;35210;41.606;-87.602;2023-07-24T09:43:17;31.00;29.00;18.00
49343;PMS5003;35210;41.606;-87.602;2023-07-24T09:45:46;33.00;29.20;20.00
49343;PMS5003;35210;41.606;-87.602;2023-07-24T09:48:14;38.60;31.60;18.40
49343;PMS5003;35210;41.606;-87.602;2023-07-24T09:50:45;28.20;27.80;18.60
49343;PMS5003;35210;41.606;-87.602;2023-07-24T09:53:17;31.20;29.00;19.40
49343;PMS5003;35210;41.606;-87.602;2023-07-24T09:55:49;32.20;29.20;18.40
49343;PMS5003;35210;41.606;-87.602;2023-07-24T09:58:23;33.60;29.20;18.00
49343;PMS5003;35210;41.606;-87.602;2023-07-24T10:00:52;28.20;25.80;15.80
49343;PMS5003;35210;41.606;-87.602;2023-07-24T10:03:21;30.20;27.00;18.80
49343;PMS5003;35210;41.606;-87.602;2023-07-24T10:05:50;32.60;27.80;18.80
49343;PMS5003;35210;41.606;-87.602;2023-07-24T10:08:21;28.40;25.60;14.40
49343;PMS5003;35210;41.606;-87.602;2023-07-24T10:10:49;28.60;28.60;19.80
49343;PMS5003;35210;41.606;-87.602;2023-07-24T10:13:19;26.60;26.40;18.40
49343;PMS5003;35210;41.606;-87.602;2023-07-24T10:15:49;30.20;26.00;16.80
49343;PMS5003;35210;41.606;-87.602;2023-07-24T10:18:24;28.00;27.40;17.20
49343;PMS5003;35210;41.606;-87.602;2023-07-24T10:21:03;31.00;27.80;17.20
49343;PMS5003;35210;41.606;-87.602;2023-07-24T10:23:35;32.80;29.40;18.40
49343;PMS5003;35210;41.606;-87.602;2023-07-24T10:26:04;28.60;24.20;16.00
49343;PMS5003;35210;41.606;-87.602;2023-07-24T10:28:33;34.00;29.00;18.60
49343;PMS5003;35210;41.606;-87.602;2023-07-24T10:31:04;38.00;31.40;20.00
49343;PMS5003;35210;41.606;-87.602;2023-07-24T10:33:34;33.00;27.60;19.20
49343;PMS5003;35210;41.606;-87.602;2023-07-24T10:36:04;32.40;28.80;17.40
49343;PMS5003;35210;41.606;-87.602;2023-07-24T10:38:40;27.00;27.00;16.60
49343;PMS5003;35210;41.606;-87.602;2023-07-24T10:41:11;35.00;32.80;19.60
49343;PMS5003;35210;41.606;-87.602;2023-07-24T10:43:41;31.40;28.20;19.20
49343;PMS5003;35210;41.606;-87.602;2023-07-24T10:46:16;34.80;28.80;20.40
49343;PMS5003;35210;41.606;-87.602;2023-07-24T10:48:45;32.60;29.00;17.80
49343;PMS5003;35210;41.606;-87.602;2023-07-24T10:51:15;32.60;28.80;20.00
49343;PMS5003;35210;41.606;-87.602;2023-07-24T10:53:46;33.40;29.20;18.60
49343;PMS5003;35210;41.606;-87.602;2023-07-24T10:56:15;33.40;29.80;20.00
49343;PMS5003;35210;41.606;-87.602;2023-07-24T10:58:44;31.00;28.60;17.60
49343;PMS5003;35210;41.606;-87.602;2023-07-24T11:01:12;31.20;27.60;18.00
49343;PMS5003;35210;41.606;-87.602;2023-07-24T11:03:41;34.40;30.60;17.60
49343;PMS5003;35210;41.606;-87.602;2023-07-24T11:06:12;30.00;26.60;17.00
49343;PMS5003;35210;41.606;-87.602;2023-07-24T11:08:41;39.80;30.40;20.60
49343;PMS5003;35210;41.606;-87.602;2023-07-24T11:11:11;32.40;29.20;19.80
49343;PMS5003;35210;41.606;-87.602;2023-07-24T11:13:42;31.80;29.80;18.60
49343;PMS5003;35210;41.606;-87.602;2023-07-24T11:16:10;38.20;26.20;17.40
49343;PMS5003;35210;41.606;-87.602;2023-07-24T11:18:45;33.00;29.20;18.20
49343;PMS5003;35210;41.606;-87.602;2023-07-24T11:21:14;30.00;29.20;18.80
49343;PMS5003;35210;41.606;-87.602;2023-07-24T11:23:46;41.80;34.00;20.80
49343;PMS5003;35210;41.606;-87.602;2023-07-24T11:26:18;30.60;29.20;18.20
49343;PMS5003;35210;41.606;-87.602;2023-07-24T11:28:48;34.40;30.20;17.60
49343;PMS5003;35210;41.606;-87.602;2023-07-24T11:31:17;37.00;29.40;18.40
49343;PMS5003;35210;41.606;-87.602;2023-07-24T11:33:46;33.20;29.20;20.00
49343;PMS5003;35210;41.606;-87.602;2023-07-24T11:36:16;38.80;30.40;20.00
49343;PMS5003;35210;41.606;-87.602;2023-07-24T11:38:44;33.40;31.80;20.80
49343;PMS5003;35210;41.606;-87.602;2023-07-24T11:41:13;31.80;29.80;22.60
49343;PMS5003;35210;41.606;-87.602;2023-07-24T11:43:46;38.00;32.20;20.00
49343;PMS5003;35210;41.606;-87.602;2023-07-24T11:46:25;38.20;33.00;20.40
49343;PMS5003;35210;41.606;-87.602;2023-07-24T11:48:54;37.80;32.00;19.60
49343;PMS5003;35210;41.606;-87.602;2023-07-24T11:51:23;33.40;28.40;17.80
49343;PMS5003;35210;41.606;-87.602;2023-07-24T11:53:52;34.00;28.80;18.60
49343;PMS5003;35210;41.606;-87.602;2023-07-24T11:56:30;28.80;27.00;18.20
49343;PMS5003;35210;41.606;-87.602;2023-07-24T11:59:10;29.80;27.20;16.80
49343;PMS5003;35210;41.606;-87.602;2023-07-24T12:01:38;34.60;30.20;15.80
49343;PMS5003;35210;41.606;-87.602;2023-07-24T12:04:06;34.00;28.00;18.40
49343;PMS5003;35210;41.606;-87.602;2023-07-24T12:06:34;30.20;28.80;18.60
49343;PMS5003;35210;41.606;-87.602;2023-07-24T12:09:04;31.60;29.80;18.60
49343;PMS5003;35210;41.606;-87.602;2023-07-24T12:11:33;39.40;32.00;19.00
49343;PMS5003;35210;41.606;-87.602;2023-07-24T12:14:07;29.80;27.20;17.00
49343;PMS5003;35210;41.606;-87.602;2023-07-24T12:16:38;32.60;29.80;19.40
49343;PMS5003;35210;41.606;-87.602;2023-07-24T12:19:06;32.00;26.80;17.20
49343;PMS5003;35210;41.606;-87.602;2023-07-24T12:21:34;29.60;25.80;15.20
49343;PMS5003;35210;41.606;-87.602;2023-07-24T12:24:03;30.00;25.20;15.80
49343;PMS5003;35210;41.606;-87.602;2023-07-24T12:26:31;25.80;24.00;13.80
49343;PMS5003;35210;41.606;-87.602;2023-07-24T12:28:59;32.60;27.80;17.80
49343;PMS5003;35210;41.606;-87.602;2023-07-24T12:31:27;32.40;27.40;16.20
49343;PMS5003;35210;41.606;-87.602;2023-07-24T12:33:57;30.40;27.80;16.60
49343;PMS5003;35210;41.606;-87.602;2023-07-24T12:36:25;33.60;28.40;17.20
49343;PMS5003;35210;41.606;-87.602;2023-07-24T12:38:53;32.20;29.20;17.40
49343;PMS5003;35210;41.606;-87.602;2023-07-24T12:41:21;33.60;29.20;17.00
49343;PMS5003;35210;41.606;-87.602;2023-07-24T12:43:50;26.80;26.80;16.80
49343;PMS5003;35210;41.606;-87.602;2023-07-24T12:46:18;31.80;29.80;18.60
49343;PMS5003;35210;41.606;-87.602;2023-07-24T12:48:46;36.00;32.20;19.40
49343;PMS5003;35210;41.606;-87.602;2023-07-24T12:51:15;27.60;27.00;17.40
49343;PMS5003;35210;41.606;-87.602;2023-07-24T12:53:43;28.00;24.20;15.80
49343;PMS5003;35210;41.606;-87.602;2023-07-24T12:56:12;30.00;25.20;16.20
49343;PMS5003;35210;41.606;-87.602;2023-07-24T12:58:40;30.20;26.20;15.00
49343;PMS5003;35210;41.606;-87.602;2023-07-24T13:01:09;30.00;26.40;15.80
49343;PMS5003;35210;41.606;-87.602;2023-07-24T13:03:37;33.40;31.00;19.00
49343;PMS5003;35210;41.606;-87.602;2023-07-24T13:06:05;31.60;29.40;19.40
49343;PMS5003;35210;41.606;-87.602;2023-07-24T13:08:35;26.80;23.00;13.60
49343;PMS5003;35210;41.606;-87.602;2023-07-24T13:11:06;24.80;23.20;15.60
49343;PMS5003;35210;41.606;-87.602;2023-07-24T13:13:36;27.00;24.80;17.80
49343;PMS5003;35210;41.606;-87.602;2023-07-24T13:16:08;26.00;22.60;14.00
49343;PMS5003;35210;41.606;-87.602;2023-07-24T13:18:38;17.40;16.20;13.20
49343;PMS5003;35210;41.606;-87.602;2023-07-24T13:21:06;26.80;23.40;14.80
49343;PMS5003;35210;41.606;-87.602;2023-07-24T13:23:37;26.20;26.20;15.00
49343;PMS5003;35210;41.606;-87.602;2023-07-24T13:26:05;23.80;21.40;14.00
49343;PMS5003;35210;41.606;-87.602;2023-07-24T13:28:36;29.40;25.00;17.20
49343;PMS5003;35210;41.606;-87.602;2023-07-24T13:31:11;25.80;23.40;14.20
49343;PMS5003;35210;41.606;-87.602;2023-07-24T13:33:41;30.80;27.20;17.60
49343;PMS5003;35210;41.606;-87.602;2023-07-24T13:36:09;30.00;26.60;18.40